DIRECCIÓN GENERAL DE AERONÁUTICA CIVIL
DIRECCIÓN METEOROLÓGICA DE CHILE
INFORMACIÓN METAR Y TAF

FIR SANTIAGO

Estación: SCSE
METAR SCSE 310100Z 32005KT 00400 FG VV000 11/10 Q1018=

TAF SCSE 302236Z 3100/3124 29010KT CAVOK TX15/3118Z TN10/3110Z BECMG 3102/3104 12004KT TEMPO 3102/3112 VRB02KT 0500 FG BKN002 BECMG 3116/ 3118 29012KT=

Estación: SCER
METAR SCER 161100Z 00000KT 7000 OVC014 12/10 Q1015=

TAF SCER NIL=

Estación: SCRD
METAR SCRD 302200Z 12003KT 9999 4500N VCFG SCT015 BKN100 OVC230 12/11 Q1019=

TAF SCRD 301050Z 3012/3024 VRB02KT 9999 FEW004 BKN120 TX18/3018Z TN12 /3012Z TEMPO 3012/3015 35004KT 2000 BR BKN004 BECMG 3016/3018 22008KT CAVOK=

Estación: SCVM
METAR SCVM 310100Z 15003KT 0100 FG VV000 11/11 Q1020=

TAF SCVM 302237Z 3100/3124 15005KT 0500 FG BKN002 TX14/3119Z TN10/ 3110Z TEMPO 3102/3112 24005KT 2000 BR BKN008 BECMG 3117/3119 33010KT 9999 SCT030 SCT120=

Estación: SCTB
METAR SCTB 302200Z 18002KT 4000 HZ BKN100 OVC150 14/09 Q1020=

TAF SCTB 301051Z 3012/3024 VRB02KT 5000 HZ BKN080 BKN130 TX19/3018Z TN11/3012Z BECMG 3016/3018 22004KT 8000 NSC BECMG 3019/3021 5000 HZ BKN100=

Estación: SCEL
METAR SCEL 310100Z 15004KT 9999 BKN160 13/10 Q1020 NOSIG=

TAF SCEL 302238Z 3100/3124 15004KT 7000 BKN140 TX14/3119Z TN09/3111Z BECMG 3102/3104 5000 HZ BKN120 TEMPO 3105/3110 24006KT 0500 FG BKN002 TEMPO 3114/3118 03008KT 8000 -SHRA BKN030 BKN080 BECMG 3116/3118 19010KT 9999 SCT040 BKN140=

Estación: SCSN
METAR SCSN 310000Z 00000KT 0300 FG OVC003 10/10 Q1021=

TAF AMD SCSN 301349Z 3014/3024 VRB02KT 0800 FG BKN005 TX14/3018Z TN11 /3012Z BECMG 3017/3019 2000 BR BKN008 BECMG 3016/3018 25007KT TEMPO 3019/3022 CAVOK=

Estación: SCRG
METAR SCRG 302100Z 27004KT 4000 HZ BKN100 OVC140 13/11 Q1018=

TAF SCRG 301052Z 3012/3024 VRB02KT 3000 BR BKN006 BKN130 TX17/3018Z TN09/3012Z BECMG 3016/3018 19008KT 8000 NSC BECMG 3020/3022 9999 BKN120=

Estación: SCIC
METAR SCIC 310100Z AUTO 32004KT 270V070 9999 -RA NCD 12/10 Q1019=

TAF SCIC 301053Z 3012/3024 VRB02KT 4000 BR SCT004 BKN100 TX17/3019Z TN10/3012Z TEMPO 3012/3014 0600 FG BKN002 BECMG 3016/3018 25007KT 9999 BKN100=

Estación: SCCH
METAR SCCH 302200Z 01008KT 3500 RA BKN010 OVC045 11/09 Q1018=

TAF SCCH 301054Z 3012/3024 VRB02KT 6000 SCT030 BKN100 TX16/3018Z TN11 /3012Z BECMG 3015/3017 02023KT 9999 SCT025 BKN090 BECMG 3021/3023 6000 SHRA BKN015 OVC080=

Estación: SCIE
METAR SCIE 310100Z 02014KT 4000 RA BKN004 OVC015 12/11 Q1016=

TAF SCIE 302240Z 3100/3124 02018KT 4000 RA BKN015 BKN040 TX13/3118Z TN10/3110Z BECMG 3108/3110 36011KT 7000 SHRA BKN010 BKN025 BECMG 3113 /3115 02020KT 4000 RA BKN015 BKN030 TEMPO 3120/3124 35008KT 9999 - SHRA BKN030=

Estación: SCGE
METAR SCGE 302200Z 0000KT 2000 -RA BKN010 OVC027 09/08 Q1016=

TAF SCGE 301055Z 3012/3024 35004KT 9999 SCT035 BKN100 TX16/3018Z TN11 /3012Z BECMG 3016/3018 04022KT SCT025 BKN090 BECMG 3020/3022 04020G30KT 4000 RA BKN015 OVC080=


Volver